Time;durP1;ratioP1;P1;durP2;ratioP2;P2;SDS_P1;SDS_P2;PMS_P1;PMS_P2;Temp;Humidity;BMP_temperature;BMP_pressure;BME280_temperature;BME280_humidity;BME280_pressure;Samples;Min_cycle;Max_cycle;Signal;HPM_P1;HPM_P2
2022/05/22 00:00:00;;;;;;;17.38;7.65;;;8.30;86.00;;;;;;4822234;29;20549;-68
2022/05/22 00:02:26;;;;;;;13.63;7.23;;;8.30;86.00;;;;;;4830991;29;20047;-68
2022/05/22 00:04:52;;;;;;;12.07;6.00;;;8.30;86.10;;;;;;4824099;29;20365;-68
2022/05/22 00:07:18;;;;;;;15.85;6.85;;;8.30;86.20;;;;;;4810955;29;20126;-68
2022/05/22 00:09:44;;;;;;;14.88;6.75;;;8.30;86.40;;;;;;4840736;29;20412;-68
2022/05/22 00:12:11;;;;;;;15.27;7.47;;;8.30;86.40;;;;;;4801794;29;20039;-68
2022/05/22 00:14:38;;;;;;;14.93;7.75;;;8.30;86.40;;;;;;4813646;29;20050;-68
2022/05/22 00:17:06;;;;;;;18.08;6.85;;;8.30;86.50;;;;;;4805379;29;20042;-68
2022/05/22 00:19:32;;;;;;;18.33;7.53;;;8.30;86.50;;;;;;4840330;29;20046;-68
2022/05/22 00:21:59;;;;;;;24.27;7.75;;;8.30;86.50;;;;;;4812135;29;20087;-68
2022/05/22 00:24:28;;;;;;;15.57;7.70;;;8.30;86.50;;;;;;4811737;29;20054;-68
2022/05/22 00:26:54;;;;;;;17.10;7.38;;;8.20;86.60;;;;;;4812333;29;20051;-68
2022/05/22 00:29:20;;;;;;;13.27;7.57;;;8.20;86.60;;;;;;4832406;29;20084;-68
2022/05/22 00:31:46;;;;;;;10.70;6.07;;;8.20;86.60;;;;;;4836810;29;20066;-68
2022/05/22 00:34:13;;;;;;;18.23;7.22;;;8.20;86.70;;;;;;4839839;29;20058;-68
2022/05/22 00:36:39;;;;;;;13.32;6.88;;;8.20;86.70;;;;;;4793424;29;20051;-68
2022/05/22 00:39:05;;;;;;;14.80;7.43;;;8.20;86.80;;;;;;4827813;29;20049;-68
2022/05/22 00:41:32;;;;;;;15.10;7.47;;;8.30;86.90;;;;;;4836989;29;20046;-68
2022/05/22 00:44:00;;;;;;;18.98;8.52;;;8.30;87.00;;;;;;4823718;29;20312;-68
2022/05/22 00:46:29;;;;;;;18.33;8.13;;;8.40;87.10;;;;;;4842523;29;20069;-68
2022/05/22 00:49:01;;;;;;;15.63;7.50;;;8.40;87.10;;;;;;4798945;29;20061;-68
2022/05/22 00:51:49;;;;;;;15.02;7.65;;;8.40;87.10;;;;;;4798519;29;20043;-68
2022/05/22 00:54:43;;;;;;;17.80;8.25;;;8.40;87.10;;;;;;4807048;29;20130;-68
2022/05/22 00:57:33;;;;;;;20.92;8.07;;;8.40;87.10;;;;;;4787307;29;20057;-68
2022/05/22 01:00:02;;;;;;;18.05;8.05;;;8.40;87.20;;;;;;4824878;29;20130;-68
2022/05/22 01:03:26;;;;;;;11.77;6.45;;;8.40;87.20;;;;;;4820758;29;20069;-68
2022/05/22 01:05:14;;;;;;;14.75;6.40;;;8.40;87.30;;;;;;4803425;29;20057;-68
2022/05/22 01:07:39;;;;;;;10.77;6.30;;;8.30;87.30;;;;;;4809559;29;20996;-68
2022/05/22 01:10:05;;;;;;;14.27;6.57;;;8.30;87.30;;;;;;4804604;29;20138;-68
2022/05/22 01:12:31;;;;;;;11.30;6.20;;;8.20;87.40;;;;;;4832860;29;20094;-68
2022/05/22 01:14:57;;;;;;;8.47;5.80;;;8.20;87.40;;;;;;4809666;29;20043;-68
2022/05/22 01:17:22;;;;;;;11.67;6.57;;;8.20;87.40;;;;;;4798718;29;20138;-68
2022/05/22 01:19:57;;;;;;;17.73;7.20;;;8.20;87.50;;;;;;4819887;29;20049;-68
2022/05/22 01:22:23;;;;;;;13.27;7.70;;;8.10;87.40;;;;;;4814163;29;20062;-68
2022/05/22 01:24:49;;;;;;;14.38;6.80;;;8.20;87.50;;;;;;4810452;29;20051;-68
2022/05/22 01:27:17;;;;;;;12.40;6.40;;;8.10;87.50;;;;;;4811511;29;20049;-68
2022/05/22 01:29:43;;;;;;;14.65;6.28;;;8.10;87.30;;;;;;4787820;29;20055;-68
2022/05/22 01:32:09;;;;;;;15.83;6.57;;;8.10;87.50;;;;;;4805907;29;20063;-68
2022/05/22 01:34:34;;;;;;;14.30;6.77;;;8.10;87.50;;;;;;4819342;29;20331;-68
2022/05/22 01:37:00;;;;;;;13.30;6.40;;;8.10;87.50;;;;;;4825918;29;21181;-68
2022/05/22 01:39:26;;;;;;;14.77;5.50;;;8.00;87.60;;;;;;4804771;29;20065;-68
2022/05/22 01:41:52;;;;;;;13.07;6.10;;;8.00;87.60;;;;;;4810993;29;20115;-68
2022/05/22 01:44:18;;;;;;;12.50;6.82;;;8.00;87.60;;;;;;4814383;29;20121;-68
2022/05/22 01:46:43;;;;;;;12.87;6.40;;;7.90;87.60;;;;;;4808733;29;20416;-68
2022/05/22 01:49:09;;;;;;;15.10;6.47;;;7.90;87.70;;;;;;4807862;29;20047;-68
2022/05/22 01:51:38;;;;;;;13.37;6.20;;;7.90;87.70;;;;;;4811349;29;20050;-68
2022/05/22 01:54:04;;;;;;;14.02;7.57;;;7.90;87.80;;;;;;4793620;29;20539;-68
2022/05/22 01:56:31;;;;;;;15.43;7.50;;;7.90;87.70;;;;;;4833123;29;20105;-68
2022/05/22 01:58:57;;;;;;;14.57;7.00;;;7.90;87.80;;;;;;4791313;29;20095;-68
2022/05/22 02:01:23;;;;;;;12.73;6.00;;;7.90;87.90;;;;;;4798616;29;20047;-68
2022/05/22 02:03:48;;;;;;;19.53;7.97;;;7.90;87.90;;;;;;4824356;29;20050;-68
2022/05/22 02:06:14;;;;;;;14.70;7.50;;;7.90;87.90;;;;;;4794136;29;20447;-68
2022/05/22 02:08:42;;;;;;;12.47;6.00;;;8.00;88.00;;;;;;4787450;29;20488;-68
2022/05/22 02:11:08;;;;;;;11.93;6.38;;;7.90;88.00;;;;;;4803974;29;20050;-68
2022/05/22 02:13:40;;;;;;;7.93;5.93;;;7.90;88.10;;;;;;4803569;29;20069;-68
2022/05/22 02:16:05;;;;;;;11.82;5.80;;;7.90;88.10;;;;;;4805158;29;20466;-68
2022/05/22 02:18:32;;;;;;;12.57;6.00;;;7.90;88.10;;;;;;4809329;29;20098;-68
2022/05/22 02:20:57;;;;;;;14.05;5.70;;;7.90;88.20;;;;;;4812272;29;20054;-68
2022/05/22 02:23:23;;;;;;;9.33;5.07;;;7.80;88.20;;;;;;4813497;29;20531;-68
2022/05/22 02:25:51;;;;;;;7.83;4.90;;;7.80;88.30;;;;;;4810982;29;20078;-68
2022/05/22 02:28:18;;;;;;;9.43;5.20;;;7.80;88.30;;;;;;4832949;29;20217;-68
2022/05/22 02:30:54;;;;;;;11.23;4.70;;;7.80;88.40;;;;;;4824000;29;20412;-68
2022/05/22 02:33:20;;;;;;;7.88;4.60;;;7.70;88.40;;;;;;4811907;29;20094;-68
2022/05/22 02:35:46;;;;;;;6.73;4.47;;;7.70;88.50;;;;;;4823269;29;20452;-68
2022/05/22 02:38:12;;;;;;;7.73;5.00;;;7.80;88.40;;;;;;4808899;29;20099;-68
2022/05/22 02:40:38;;;;;;;8.20;4.22;;;7.70;88.40;;;;;;4838761;29;20408;-68
2022/05/22 02:43:05;;;;;;;20.88;3.85;;;7.70;88.50;;;;;;4809239;29;20080;-68
2022/05/22 02:45:33;;;;;;;15.73;4.43;;;7.70;88.60;;;;;;4794832;29;20098;-68
2022/05/22 02:47:59;;;;;;;10.20;4.45;;;7.80;88.70;;;;;;4812038;29;20097;-68
2022/05/22 02:50:26;;;;;;;6.70;3.77;;;7.80;88.90;;;;;;4825692;29;20081;-68
2022/05/22 02:52:52;;;;;;;35.03;4.10;;;7.80;89.10;;;;;;4810576;29;20809;-68
2022/05/22 02:55:19;;;;;;;9.20;3.07;;;7.90;89.10;;;;;;4836131;29;20082;-68
2022/05/22 02:57:46;;;;;;;6.90;3.13;;;7.80;89.10;;;;;;4836611;29;20540;-68
2022/05/22 03:00:16;;;;;;;6.63;2.55;;;7.80;89.10;;;;;;4805511;29;20370;-68
2022/05/22 03:02:41;;;;;;;6.78;2.67;;;7.80;89.20;;;;;;4805314;29;20050;-68
2022/05/22 03:05:07;;;;;;;12.30;3.80;;;7.80;89.30;;;;;;4812542;29;20054;-68
2022/05/22 03:07:37;;;;;;;8.40;2.97;;;7.70;89.40;;;;;;4808247;29;20058;-68
2022/05/22 03:10:05;;;;;;;6.47;2.95;;;7.70;89.50;;;;;;4818824;29;20070;-68
2022/05/22 03:12:30;;;;;;;17.15;3.47;;;7.70;89.50;;;;;;4811318;29;20591;-68
2022/05/22 03:14:58;;;;;;;4.17;2.73;;;7.70;89.70;;;;;;4815928;29;20119;-68
2022/05/22 03:17:24;;;;;;;5.75;2.88;;;7.70;89.80;;;;;;4841805;29;20066;-68
2022/05/22 03:19:50;;;;;;;9.55;3.50;;;7.70;89.80;;;;;;4802146;29;20039;-68
2022/05/22 03:22:17;;;;;;;7.30;3.10;;;7.60;89.80;;;;;;4793603;29;20687;-68
2022/05/22 03:24:43;;;;;;;20.95;4.13;;;7.70;89.90;;;;;;4811804;29;20054;-68
2022/05/22 03:27:11;;;;;;;11.43;2.80;;;7.60;89.90;;;;;;4828616;29;20141;-68
2022/05/22 03:29:38;;;;;;;4.65;2.88;;;7.60;90.00;;;;;;4834681;29;20050;-68
2022/05/22 03:32:04;;;;;;;11.50;3.50;;;7.60;90.00;;;;;;4809767;29;20125;-69
2022/05/22 03:34:30;;;;;;;4.82;2.78;;;7.60;90.00;;;;;;4788411;29;20046;-69
2022/05/22 03:36:57;;;;;;;8.43;3.10;;;7.60;90.10;;;;;;4810136;29;20050;-68
2022/05/22 03:39:23;;;;;;;10.45;3.22;;;7.60;90.10;;;;;;4812859;29;20043;-68
2022/05/22 03:41:50;;;;;;;13.55;3.70;;;7.60;90.20;;;;;;4826647;29;20091;-68
2022/05/22 03:44:15;;;;;;;56.05;5.05;;;7.60;90.20;;;;;;4839981;29;20084;-68
2022/05/22 03:46:41;;;;;;;32.60;4.97;;;7.70;90.30;;;;;;4799301;29;20134;-68
2022/05/22 03:49:07;;;;;;;14.30;3.70;;;7.70;90.30;;;;;;4812056;29;20046;-68
2022/05/22 03:51:34;;;;;;;18.00;4.00;;;7.70;90.40;;;;;;4824454;29;20043;-68
2022/05/22 03:54:00;;;;;;;17.52;3.95;;;7.80;90.40;;;;;;4806002;29;20077;-68
2022/05/22 03:56:26;;;;;;;6.10;3.50;;;7.80;90.40;;;;;;4819096;29;20039;-68
2022/05/22 03:58:51;;;;;;;10.03;3.37;;;7.90;90.50;;;;;;4809583;29;20085;-68
2022/05/22 04:01:17;;;;;;;26.87;4.93;;;7.90;90.60;;;;;;4832356;29;20042;-69
2022/05/22 04:03:43;;;;;;;38.47;5.60;;;8.00;90.70;;;;;;4816373;29;20049;-69
2022/05/22 04:06:10;;;;;;;28.97;5.27;;;8.00;90.70;;;;;;4797728;29;20046;-69
2022/05/22 04:08:37;;;;;;;35.80;6.22;;;8.10;90.80;;;;;;4836273;29;20089;-69
2022/05/22 04:11:07;;;;;;;16.45;4.90;;;8.20;90.80;;;;;;4815422;29;20055;-69
2022/05/22 04:13:32;;;;;;;15.73;4.93;;;8.20;90.80;;;;;;4801918;29;20043;-69
2022/05/22 04:15:58;;;;;;;14.23;4.40;;;8.30;90.90;;;;;;4811109;29;20089;-69
2022/05/22 04:18:25;;;;;;;30.20;5.17;;;8.40;90.80;;;;;;4803950;29;20131;-69
2022/05/22 04:20:51;;;;;;;37.60;5.97;;;8.40;90.80;;;;;;4833161;29;20083;-68
2022/05/22 04:26:01;;;;;;;27.85;5.93;;;8.60;90.60;;;;;;4836143;29;20359;-68
2022/05/22 04:28:29;;;;;;;13.07;5.40;;;8.60;90.40;;;;;;4802812;29;20090;-69
2022/05/22 04:30:55;;;;;;;7.75;6.00;;;8.70;90.40;;;;;;4841073;29;20078;-69
2022/05/22 04:33:21;;;;;;;10.77;5.65;;;8.80;90.40;;;;;;4786836;29;20046;-69
2022/05/22 04:35:47;;;;;;;12.07;6.87;;;8.80;90.20;;;;;;4837294;29;20538;-69
2022/05/22 04:38:13;;;;;;;9.10;5.53;;;8.90;90.30;;;;;;4824622;29;20039;-69
2022/05/22 04:40:40;;;;;;;6.50;5.30;;;8.90;90.20;;;;;;4841467;29;20419;-69
2022/05/22 04:43:06;;;;;;;10.70;5.85;;;9.00;90.00;;;;;;4803571;29;20111;-69
2022/05/22 04:45:32;;;;;;;8.18;6.03;;;9.00;89.80;;;;;;4825426;29;20058;-69
2022/05/22 04:47:58;;;;;;;7.63;5.22;;;9.00;89.80;;;;;;4815157;29;20046;-69
2022/05/22 04:50:25;;;;;;;9.80;6.10;;;9.10;89.90;;;;;;4804117;29;20050;-69
2022/05/22 04:52:51;;;;;;;9.40;6.50;;;9.20;89.70;;;;;;4808431;29;20107;-69
2022/05/22 04:55:17;;;;;;;10.17;6.90;;;9.40;89.60;;;;;;4818950;29;20046;-69
2022/05/22 04:57:43;;;;;;;12.30;6.53;;;9.60;89.90;;;;;;4833343;29;20431;-69
2022/05/22 05:00:11;;;;;;;8.88;6.10;;;10.00;89.80;;;;;;4790117;29;20046;-69
2022/05/22 05:02:37;;;;;;;7.45;5.93;;;10.20;88.50;;;;;;4819910;29;20082;-69
2022/05/22 05:05:08;;;;;;;8.00;5.65;;;10.20;87.70;;;;;;4808649;29;20051;-69
2022/05/22 05:07:40;;;;;;;9.82;6.43;;;10.60;88.40;;;;;;4804801;29;20086;-69
2022/05/22 05:10:07;;;;;;;11.50;6.03;;;11.40;88.80;;;;;;4793947;29;20079;-69
2022/05/22 05:12:40;;;;;;;8.05;5.53;;;12.30;86.30;;;;;;4790040;29;20501;-69
2022/05/22 05:15:09;;;;;;;8.00;5.27;;;13.20;84.10;;;;;;4815639;29;20491;-69
2022/05/22 05:17:35;;;;;;;9.37;6.00;;;14.10;81.80;;;;;;4796596;29;20306;-69
2022/05/22 05:20:00;;;;;;;9.83;5.40;;;14.80;79.40;;;;;;4839810;29;20312;-69
2022/05/22 05:22:30;;;;;;;7.87;5.33;;;15.40;76.90;;;;;;4800944;29;20534;-69
2022/05/22 05:24:56;;;;;;;13.10;5.90;;;15.90;75.10;;;;;;4843403;29;20054;-69
2022/05/22 05:27:22;;;;;;;10.27;5.20;;;16.30;73.90;;;;;;4841351;29;20326;-69
2022/05/22 05:29:47;;;;;;;10.20;4.97;;;16.60;72.70;;;;;;4800805;29;20098;-69
2022/05/22 05:32:18;;;;;;;8.40;4.70;;;17.10;71.70;;;;;;4822021;29;20089;-69
2022/05/22 05:34:43;;;;;;;8.37;5.67;;;17.40;70.30;;;;;;4812923;29;20053;-69
2022/05/22 05:37:09;;;;;;;10.20;5.33;;;17.70;69.20;;;;;;4809613;29;20319;-69
2022/05/22 05:39:35;;;;;;;13.53;6.13;;;18.00;68.00;;;;;;4814796;29;20521;-69
2022/05/22 05:42:02;;;;;;;9.20;4.80;;;18.30;67.50;;;;;;4834790;29;20050;-69
2022/05/22 05:44:27;;;;;;;8.80;5.23;;;18.60;66.70;;;;;;4815495;29;20368;-69
2022/05/22 05:46:53;;;;;;;10.40;5.53;;;18.80;66.50;;;;;;4819322;29;20791;-69
2022/05/22 05:49:19;;;;;;;10.80;4.80;;;19.10;65.70;;;;;;4821944;29;20050;-69
2022/05/22 05:51:45;;;;;;;10.27;4.90;;;19.20;65.30;;;;;;4807752;29;20049;-69
2022/05/22 05:54:10;;;;;;;10.87;5.50;;;19.10;64.10;;;;;;4805346;29;20042;-69
2022/05/22 05:56:40;;;;;;;8.63;4.53;;;19.10;64.00;;;;;;4808407;29;20316;-69
2022/05/22 05:59:07;;;;;;;7.80;5.00;;;19.20;64.00;;;;;;4803842;29;20584;-69
2022/05/22 06:01:33;;;;;;;11.03;5.27;;;19.50;63.70;;;;;;4828346;29;20519;-69
2022/05/22 06:04:01;;;;;;;9.47;4.90;;;19.60;63.30;;;;;;4806059;29;20864;-69
2022/05/22 06:06:27;;;;;;;11.47;4.60;;;19.80;63.00;;;;;;4809883;29;20394;-69
2022/05/22 06:08:53;;;;;;;8.47;4.50;;;20.00;62.50;;;;;;4804130;29;20319;-69
2022/05/22 06:11:19;;;;;;;13.20;4.90;;;20.10;62.30;;;;;;4835561;29;20284;-69
2022/05/22 06:13:44;;;;;;;12.87;5.43;;;20.30;62.10;;;;;;4839456;29;20092;-69
2022/05/22 06:16:11;;;;;;;11.20;5.10;;;20.30;61.60;;;;;;4818283;29;20339;-69
2022/05/22 06:18:37;;;;;;;6.33;3.90;;;20.20;61.00;;;;;;4790461;29;20057;-69
2022/05/22 06:21:11;;;;;;;10.23;4.63;;;20.20;61.00;;;;;;4823208;29;20307;-69
2022/05/22 06:23:38;;;;;;;7.17;4.30;;;20.20;60.80;;;;;;4826819;29;20365;-69
2022/05/22 06:26:05;;;;;;;10.37;4.10;;;20.10;60.80;;;;;;4842497;29;20349;-69
2022/05/22 06:28:31;;;;;;;8.40;4.20;;;20.10;61.20;;;;;;4808700;29;20330;-69
2022/05/22 06:30:57;;;;;;;9.37;3.97;;;20.30;61.20;;;;;;4793700;29;20848;-69
2022/05/22 06:33:23;;;;;;;10.77;4.03;;;20.20;60.20;;;;;;4811264;29;20073;-69
2022/05/22 06:35:49;;;;;;;8.23;3.60;;;20.00;60.60;;;;;;4784279;29;20943;-69
2022/05/22 06:41:06;;;;;;;9.77;4.18;;;19.90;61.00;;;;;;4841746;29;20310;-69
2022/05/22 06:43:32;;;;;;;9.93;3.70;;;19.80;61.40;;;;;;4802113;29;20514;-69
2022/05/22 06:45:58;;;;;;;12.00;3.70;;;19.60;61.10;;;;;;4802705;29;20315;-69
2022/05/22 06:48:24;;;;;;;9.90;3.63;;;19.30;61.90;;;;;;4817490;29;20054;-69
2022/05/22 06:50:50;;;;;;;8.50;3.77;;;19.30;62.60;;;;;;4801015;29;20130;-69
2022/05/22 06:53:16;;;;;;;9.57;3.50;;;19.00;63.10;;;;;;4802865;29;20047;-69
2022/05/22 06:55:41;;;;;;;12.27;4.03;;;19.00;63.70;;;;;;4785016;29;20863;-69
2022/05/22 06:58:08;;;;;;;10.20;4.20;;;18.80;63.50;;;;;;4794769;29;20050;-69
2022/05/22 07:00:33;;;;;;;10.00;4.20;;;18.60;63.90;;;;;;4813041;29;20035;-69
2022/05/22 07:02:59;;;;;;;8.20;3.33;;;18.40;65.20;;;;;;4839114;29;20411;-69
2022/05/22 07:05:26;;;;;;;9.23;2.60;;;18.20;65.10;;;;;;4806866;29;20049;-69
2022/05/22 07:07:52;;;;;;;11.03;3.23;;;17.70;65.20;;;;;;4802429;29;20444;-69
2022/05/22 07:10:19;;;;;;;7.30;2.77;;;17.40;66.50;;;;;;4842661;29;20870;-69
2022/05/22 07:12:44;;;;;;;8.07;2.70;;;17.10;67.40;;;;;;4785371;29;20806;-69
2022/05/22 07:15:11;;;;;;;6.10;2.33;;;16.70;67.80;;;;;;4812899;29;20301;-69
2022/05/22 07:17:37;;;;;;;6.87;2.57;;;16.40;67.70;;;;;;4834060;29;20090;-69
2022/05/22 07:20:04;;;;;;;13.67;3.33;;;16.30;68.70;;;;;;4788591;29;20328;-69
2022/05/22 07:22:30;;;;;;;10.17;2.87;;;16.20;68.90;;;;;;4815684;29;20304;-69
2022/05/22 07:24:56;;;;;;;12.30;3.20;;;16.10;69.10;;;;;;4808005;29;20299;-69
2022/05/22 07:27:22;;;;;;;8.17;2.90;;;16.10;69.00;;;;;;4812561;29;20047;-69
2022/05/22 07:29:47;;;;;;;9.87;3.27;;;16.00;68.90;;;;;;4802227;29;20464;-69
2022/05/22 07:32:14;;;;;;;9.03;2.93;;;16.00;69.60;;;;;;4818649;29;20493;-69
2022/05/22 07:34:40;;;;;;;7.93;2.63;;;16.00;69.70;;;;;;4808525;29;20484;-69
2022/05/22 07:37:08;;;;;;;11.37;2.43;;;16.10;69.00;;;;;;4832351;29;20285;-69
2022/05/22 07:39:34;;;;;;;8.40;2.90;;;16.10;69.80;;;;;;4797238;29;20284;-69
2022/05/22 07:42:00;;;;;;;11.43;2.90;;;16.20;69.10;;;;;;4812698;29;20299;-69
2022/05/22 07:44:25;;;;;;;10.43;2.87;;;16.20;68.10;;;;;;4808975;29;20050;-69
2022/05/22 07:46:51;;;;;;;12.20;3.20;;;16.30;69.00;;;;;;4834683;29;20057;-69
2022/05/22 07:52:08;;;;;;;11.45;3.15;;;16.50;69.10;;;;;;4839580;29;20050;-69
2022/05/22 07:54:35;;;;;;;8.57;3.10;;;16.60;69.10;;;;;;4824820;29;20519;-70
2022/05/22 07:57:02;;;;;;;10.23;3.10;;;16.70;68.20;;;;;;4807926;29;20355;-69
2022/05/22 07:59:28;;;;;;;11.77;2.90;;;16.80;67.90;;;;;;4803059;29;20312;-69
2022/05/22 08:01:53;;;;;;;9.93;3.13;;;16.80;67.70;;;;;;4818647;29;20308;-69
2022/05/22 08:04:19;;;;;;;9.50;2.80;;;16.80;67.20;;;;;;4841368;29;20315;-69
2022/05/22 08:06:45;;;;;;;10.13;2.43;;;16.90;67.10;;;;;;4824296;29;20135;-70
2022/05/22 08:09:11;;;;;;;9.07;2.60;;;16.90;66.10;;;;;;4816590;29;20042;-69
2022/05/22 08:11:37;;;;;;;9.57;2.70;;;17.00;66.90;;;;;;4806728;29;20053;-69
2022/05/22 08:14:03;;;;;;;9.07;2.73;;;17.10;66.50;;;;;;4839188;29;20817;-69
2022/05/22 08:16:28;;;;;;;9.53;2.97;;;17.20;66.30;;;;;;4825813;29;20387;-69
2022/05/22 08:18:54;;;;;;;9.20;2.70;;;17.30;66.00;;;;;;4810481;29;20061;-69
2022/05/22 08:21:20;;;;;;;11.07;2.70;;;17.40;65.20;;;;;;4812399;29;20049;-69
2022/05/22 08:23:45;;;;;;;9.43;3.10;;;17.60;65.60;;;;;;4814497;29;20492;-69
2022/05/22 08:26:11;;;;;;;10.97;3.60;;;17.60;66.00;;;;;;4814592;29;20042;-69
2022/05/22 08:28:37;;;;;;;10.70;3.13;;;17.80;65.80;;;;;;4803192;29;20105;-70
2022/05/22 08:31:03;;;;;;;11.50;3.97;;;17.80;65.10;;;;;;4806683;29;20053;-70
2022/05/22 08:33:29;;;;;;;10.83;3.90;;;17.90;64.90;;;;;;4829578;29;20057;-70
2022/05/22 08:35:55;;;;;;;9.87;3.77;;;18.00;63.90;;;;;;4814686;29;20293;-70
2022/05/22 08:38:20;;;;;;;11.40;4.47;;;18.00;64.30;;;;;;4791837;29;20086;-70
2022/05/22 08:40:52;;;;;;;12.27;3.90;;;18.10;65.20;;;;;;4783779;29;20041;-70
2022/05/22 08:43:46;;;;;;;14.03;4.67;;;18.20;64.60;;;;;;4827282;29;20053;-70
2022/05/22 08:46:33;;;;;;;12.20;4.70;;;18.20;63.60;;;;;;4840672;29;20790;-69
2022/05/22 08:49:05;;;;;;;14.30;4.57;;;18.30;64.20;;;;;;4837683;29;20304;-69
2022/05/22 08:52:03;;;;;;;13.67;3.70;;;18.30;63.20;;;;;;4824491;29;20383;-69
2022/05/22 08:54:33;;;;;;;13.37;4.40;;;18.30;63.50;;;;;;4783274;29;21267;-69
2022/05/22 08:59:50;;;;;;;8.83;3.47;;;18.70;63.10;;;;;;4833281;29;20504;-70
2022/05/22 09:02:34;;;;;;;11.63;3.27;;;18.90;62.00;;;;;;4827715;29;20348;-70
2022/05/22 09:05:02;;;;;;;9.50;2.83;;;19.00;61.60;;;;;;4839730;29;20311;-69
2022/05/22 09:07:37;;;;;;;8.97;3.20;;;19.10;61.80;;;;;;4814627;29;20311;-69
2022/05/22 09:10:20;;;;;;;8.98;2.72;;;19.20;61.10;;;;;;4815196;29;20329;-70
2022/05/22 09:12:59;;;;;;;11.17;3.07;;;19.40;59.50;;;;;;4807116;29;20051;-69
2022/05/22 09:15:42;;;;;;;8.20;3.03;;;19.50;60.00;;;;;;4823749;29;20046;-73
2022/05/22 09:18:43;;;;;;;11.10;3.30;;;19.50;59.90;;;;;;4842003;29;20431;-73
2022/05/22 09:21:21;;;;;;;10.10;2.67;;;19.40;59.50;;;;;;4804216;29;20304;-73
2022/05/22 09:24:02;;;;;;;9.13;2.73;;;19.60;59.50;;;;;;4819492;29;20082;-69
2022/05/22 09:26:45;;;;;;;9.07;2.50;;;19.70;58.90;;;;;;4820486;29;20047;-69
2022/05/22 09:29:17;;;;;;;8.10;2.37;;;19.70;58.70;;;;;;4802443;29;20547;-74
2022/05/22 09:31:45;;;;;;;13.33;2.53;;;19.90;58.20;;;;;;4832515;29;20054;-73
2022/05/22 09:34:43;;;;;;;10.50;2.23;;;20.00;56.70;;;;;;4828746;29;20058;-73
2022/05/22 09:37:36;;;;;;;9.00;1.70;;;20.10;56.40;;;;;;4812208;29;20054;-73
2022/05/22 09:40:10;;;;;;;4.73;1.60;;;20.20;56.50;;;;;;4775626;29;20059;-70
2022/05/22 09:43:06;;;;;;;8.13;1.58;;;20.30;54.90;;;;;;4808463;29;20080;-70
2022/05/22 09:45:47;;;;;;;8.30;1.27;;;20.30;54.40;;;;;;4825811;29;20396;-69
2022/05/22 09:48:42;;;;;;;6.23;1.30;;;20.40;55.30;;;;;;4840604;29;20058;-70
2022/05/22 09:51:33;;;;;;;4.53;0.93;;;20.60;53.60;;;;;;4827677;29;20112;-70
2022/05/22 09:54:20;;;;;;;5.53;1.17;;;20.70;53.50;;;;;;4824126;29;20465;-70
2022/05/22 09:57:15;;;;;;;5.00;0.70;;;20.80;53.50;;;;;;4811913;29;20069;-70
2022/05/22 09:59:41;;;;;;;;;;;20.90;51.30;;;;;;4799982;29;20043;-70
2022/05/22 10:02:24;;;;;;;7.90;1.20;;;21.00;49.60;;;;;;4835761;29;20297;-70
2022/05/22 10:05:23;;;;;;;6.23;1.40;;;21.00;50.60;;;;;;4831263;29;20160;-70
2022/05/22 10:08:13;;;;;;;5.40;1.00;;;21.10;52.00;;;;;;4806628;29;20870;-70
2022/05/22 10:10:49;;;;;;;6.40;1.00;;;21.00;48.20;;;;;;4826280;29;20043;-70
2022/05/22 10:13:54;;;;;;;4.90;1.10;;;20.90;52.10;;;;;;4826513;29;20043;-70
2022/05/22 10:16:50;;;;;;;7.05;1.45;;;20.90;51.30;;;;;;4788828;29;20061;-70
2022/05/22 10:19:43;;;;;;;6.73;1.47;;;20.70;50.50;;;;;;4831247;29;20416;-70
2022/05/22 10:22:30;;;;;;;7.40;1.10;;;20.70;51.10;;;;;;4829562;29;20062;-70
2022/05/22 10:25:29;;;;;;;5.73;0.97;;;20.70;52.30;;;;;;4825245;29;20051;-69
2022/05/22 10:28:14;;;;;;;3.83;1.07;;;20.70;51.80;;;;;;4832556;29;20532;-69
2022/05/22 10:31:07;;;;;;;6.40;1.93;;;20.80;51.80;;;;;;4827113;29;20683;-69
2022/05/22 10:34:01;;;;;;;4.53;1.30;;;20.90;51.30;;;;;;4817191;29;20464;-69
2022/05/22 10:36:36;;;;;;;5.33;0.80;;;20.90;51.60;;;;;;4815262;29;20066;-69
2022/05/22 10:39:09;;;;;;;8.57;1.20;;;21.00;51.60;;;;;;4801639;29;20092;-69
2022/05/22 10:44:57;;;;;;;5.10;0.93;;;21.10;51.50;;;;;;4831106;29;20535;-69
2022/05/22 10:47:32;;;;;;;4.70;0.90;;;21.10;50.60;;;;;;4827135;29;20129;-69
2022/05/22 10:49:59;;;;;;;5.07;0.83;;;21.10;50.50;;;;;;4801844;29;20042;-69
2022/05/22 10:52:30;;;;;;;5.83;0.90;;;21.10;51.10;;;;;;4835918;29;20743;-69
2022/05/22 10:54:57;;;;;;;8.13;0.90;;;21.00;48.50;;;;;;4829511;29;20527;-69
2022/05/22 10:57:27;;;;;;;5.67;1.00;;;21.00;50.70;;;;;;4806788;29;20742;-69
2022/05/22 10:59:53;;;;;;;7.63;1.10;;;21.10;51.30;;;;;;4788926;29;20137;-69
2022/05/22 11:02:31;;;;;;;8.03;1.37;;;21.20;48.00;;;;;;4785457;29;20058;-69
2022/05/22 11:04:58;;;;;;;4.30;0.87;;;21.20;49.00;;;;;;4786381;29;20050;-69
2022/05/22 11:07:43;;;;;;;4.17;1.00;;;21.20;49.60;;;;;;4785520;29;20100;-69
2022/05/22 11:10:22;;;;;;;9.48;1.02;;;21.20;47.00;;;;;;4803317;29;20046;-69
2022/05/22 11:13:07;;;;;;;5.23;0.97;;;21.20;48.90;;;;;;4826901;29;20427;-69
2022/05/22 11:15:42;;;;;;;5.13;1.83;;;21.40;45.50;;;;;;4805988;29;20043;-69
2022/05/22 11:18:23;;;;;;;7.67;1.30;;;21.40;47.90;;;;;;4815069;29;20300;-69
2022/05/22 11:21:08;;;;;;;4.43;0.90;;;21.30;47.60;;;;;;4799436;29;20744;-69
2022/05/22 11:23:40;;;;;;;5.67;1.20;;;21.50;49.00;;;;;;4797484;29;20051;-69
2022/05/22 11:26:22;;;;;;;4.57;1.07;;;21.50;49.10;;;;;;4836432;29;20054;-69
2022/05/22 11:28:56;;;;;;;6.10;1.00;;;21.40;48.50;;;;;;4813100;29;20130;-69
2022/05/22 11:31:55;;;;;;;4.88;1.35;;;21.50;50.30;;;;;;4813524;29;20054;-69
2022/05/22 11:34:49;;;;;;;5.03;1.30;;;21.60;48.70;;;;;;4840474;29;20054;-69
2022/05/22 11:37:53;;;;;;;7.00;1.33;;;21.70;48.40;;;;;;4832130;29;20058;-69
2022/05/22 11:40:43;;;;;;;5.13;1.40;;;21.80;48.90;;;;;;4834266;29;20054;-69
2022/05/22 11:43:24;;;;;;;4.80;1.50;;;21.90;48.30;;;;;;4837770;29;20085;-69
2022/05/22 11:46:09;;;;;;;5.60;1.73;;;21.90;47.90;;;;;;4803920;29;20133;-69
2022/05/22 11:49:10;;;;;;;5.07;1.65;;;21.90;48.90;;;;;;4801536;29;20500;-70
2022/05/22 11:51:47;;;;;;;7.20;1.30;;;21.90;48.30;;;;;;4808924;29;20051;-69
2022/05/22 11:54:34;;;;;;;4.60;1.63;;;21.90;49.60;;;;;;4816180;29;20519;-69
2022/05/22 11:57:09;;;;;;;5.20;1.63;;;22.00;49.20;;;;;;4831689;29;20828;-69
2022/05/22 11:59:48;;;;;;;6.22;1.17;;;22.10;48.80;;;;;;4786328;29;20046;-69
2022/05/22 12:02:42;;;;;;;5.23;1.40;;;22.10;47.80;;;;;;4831984;29;20455;-69
2022/05/22 12:05:22;;;;;;;6.80;1.30;;;22.30;49.10;;;;;;4829093;29;20061;-69
2022/05/22 12:08:06;;;;;;;5.67;1.23;;;22.50;47.60;;;;;;4832004;29;20043;-69
2022/05/22 12:10:35;;;;;;;5.80;2.07;;;22.60;47.80;;;;;;4831594;29;20053;-69
2022/05/22 12:13:15;;;;;;;6.13;1.50;;;22.40;48.10;;;;;;4829062;29;20063;-69
2022/05/22 12:15:47;;;;;;;5.13;1.60;;;22.10;47.30;;;;;;4811018;29;20047;-69
2022/05/22 12:18:29;;;;;;;6.10;1.33;;;22.40;48.50;;;;;;4810843;29;20046;-69
2022/05/22 12:21:11;;;;;;;5.63;1.20;;;22.70;48.00;;;;;;4813255;29;20450;-69
2022/05/22 12:23:48;;;;;;;7.93;1.50;;;22.90;48.00;;;;;;4798063;29;20047;-69
2022/05/22 12:26:15;;;;;;;7.07;1.67;;;23.20;46.80;;;;;;4828640;29;20086;-69
2022/05/22 12:29:00;;;;;;;5.37;1.20;;;22.90;46.40;;;;;;4830880;29;20070;-69
2022/05/22 12:31:46;;;;;;;6.40;1.60;;;22.60;44.90;;;;;;4825229;29;20816;-69
2022/05/22 12:34:18;;;;;;;7.40;1.80;;;22.30;47.50;;;;;;4797972;29;20107;-70
2022/05/22 12:36:48;;;;;;;3.17;1.10;;;22.10;47.10;;;;;;4832580;29;20042;-70
2022/05/22 12:39:16;;;;;;;5.13;1.67;;;22.30;48.20;;;;;;4826013;29;20051;-70
2022/05/22 12:41:53;;;;;;;5.40;1.60;;;22.50;47.70;;;;;;4816937;29;20137;-69
2022/05/22 12:44:19;;;;;;;9.70;1.70;;;22.50;47.50;;;;;;4822099;29;20051;-70
2022/05/22 12:46:46;;;;;;;4.87;1.20;;;22.70;47.30;;;;;;4773605;29;20050;-69
2022/05/22 12:49:32;;;;;;;4.60;1.37;;;22.60;48.00;;;;;;4830544;29;20062;-70
2022/05/22 12:52:07;;;;;;;4.77;1.43;;;22.80;46.60;;;;;;4812613;29;20038;-70
2022/05/22 12:54:38;;;;;;;5.47;1.07;;;22.70;47.60;;;;;;4811064;29;20035;-70
2022/05/22 12:57:15;;;;;;;5.13;1.10;;;22.90;47.20;;;;;;4821939;29;20126;-70
2022/05/22 13:00:10;;;;;;;6.30;1.07;;;23.20;45.60;;;;;;4793094;29;20121;-70
2022/05/22 13:02:42;;;;;;;6.45;1.33;;;23.40;45.10;;;;;;4795353;29;20046;-70
2022/05/22 13:05:30;;;;;;;4.87;1.03;;;23.50;44.80;;;;;;4813786;29;20050;-70
2022/05/22 13:07:56;;;;;;;7.73;1.23;;;23.50;44.40;;;;;;4797222;29;20154;-70
2022/05/22 13:10:45;;;;;;;6.27;0.93;;;23.60;44.10;;;;;;4814919;29;20051;-70
2022/05/22 13:13:14;;;;;;;5.40;1.33;;;23.80;43.30;;;;;;4825799;29;20046;-70
2022/05/22 13:15:56;;;;;;;7.57;1.20;;;23.90;43.10;;;;;;4831032;29;20115;-70
2022/05/22 13:18:21;;;;;;;4.57;1.07;;;24.10;43.80;;;;;;4815051;29;20207;-70
2022/05/22 13:20:52;;;;;;;7.00;1.10;;;24.20;44.30;;;;;;4816666;29;20607;-70